Time;durP1;ratioP1;P1;durP2;ratioP2;P2;SDS_P1;SDS_P2;PMS_P1;PMS_P2;Temp;Humidity;BMP_temperature;BMP_pressure;BME280_temperature;BME280_humidity;BME280_pressure;Samples;Min_cycle;Max_cycle;Signal;HPM_P1;HPM_P2
2021/01/13 00:02:09;;;;;;;2.65;0.95;;;15.30;56.50;;;;;;5013128;28;20531;-49
2021/01/13 00:04:35;;;;;;;2.05;1.15;;;15.30;56.50;;;;;;5013582;28;20022;-49
2021/01/13 00:07:01;;;;;;;2.95;0.90;;;15.30;56.50;;;;;;5013791;28;20018;-48
2021/01/13 00:09:27;;;;;;;6.22;1.52;;;15.20;56.50;;;;;;5013856;28;20480;-49
2021/01/13 00:11:59;;;;;;;6.07;0.98;;;15.30;56.60;;;;;;5013747;28;20043;-48
2021/01/13 00:14:25;;;;;;;3.67;1.15;;;15.30;56.50;;;;;;5012647;28;20036;-48
2021/01/13 00:16:51;;;;;;;3.92;1.50;;;15.30;56.60;;;;;;5013591;28;20030;-48
2021/01/13 00:19:17;;;;;;;2.13;1.05;;;15.20;56.60;;;;;;5013541;28;20026;-49
2021/01/13 00:21:50;;;;;;;4.00;1.20;;;15.20;56.60;;;;;;5013006;28;20495;-48
2021/01/13 00:24:17;;;;;;;2.25;0.90;;;15.20;56.60;;;;;;5014406;28;20493;-48
2021/01/13 00:26:43;;;;;;;1.73;0.88;;;15.20;56.60;;;;;;5013147;28;20543;-48
2021/01/13 00:29:12;;;;;;;3.25;1.10;;;15.30;56.70;;;;;;5012994;28;20026;-49
2021/01/13 00:31:38;;;;;;;3.25;0.90;;;15.20;56.70;;;;;;5013161;28;20021;-48
2021/01/13 00:34:11;;;;;;;1.80;0.93;;;15.10;56.60;;;;;;5013353;28;20022;-49
2021/01/13 00:36:37;;;;;;;2.30;1.00;;;15.10;56.70;;;;;;5013260;28;20389;-49
2021/01/13 00:39:04;;;;;;;2.55;1.00;;;15.10;56.70;;;;;;5013251;28;20026;-47
2021/01/13 00:41:30;;;;;;;1.88;0.93;;;15.00;56.70;;;;;;5012902;28;20543;-49
2021/01/13 00:43:56;;;;;;;1.05;0.82;;;15.00;56.80;;;;;;5012768;28;20070;-49
2021/01/13 00:46:22;;;;;;;1.98;0.82;;;15.00;56.80;;;;;;5013025;28;20025;-48
2021/01/13 00:48:48;;;;;;;2.85;1.10;;;15.00;56.80;;;;;;5013154;28;20017;-49
2021/01/13 00:51:14;;;;;;;2.05;0.75;;;14.90;56.80;;;;;;5012956;28;20026;-48
2021/01/13 00:53:40;;;;;;;1.75;0.90;;;15.00;56.90;;;;;;5013009;28;20034;-47
2021/01/13 00:56:06;;;;;;;2.22;1.08;;;15.00;56.80;;;;;;5012970;28;20041;-49
2021/01/13 00:58:32;;;;;;;2.35;0.93;;;15.00;56.80;;;;;;5013071;28;20109;-47
2021/01/13 01:00:59;;;;;;;2.10;1.00;;;14.90;56.80;;;;;;5013023;28;20036;-49
2021/01/13 01:03:24;;;;;;;1.30;0.90;;;14.90;56.90;;;;;;5012888;28;20088;-50
2021/01/13 01:05:50;;;;;;;2.78;0.95;;;14.90;56.90;;;;;;5012223;28;20025;-48
2021/01/13 01:08:17;;;;;;;2.63;1.05;;;15.00;57.00;;;;;;5012867;28;20021;-47
2021/01/13 01:10:47;;;;;;;2.50;0.90;;;14.90;57.00;;;;;;5012975;28;20423;-48
2021/01/13 01:13:13;;;;;;;;;;;14.90;57.00;;;;;;5013293;28;20018;-47
2021/01/13 01:15:38;;;;;;;2.60;0.90;;;14.80;57.00;;;;;;5012150;28;19921;-47
2021/01/13 01:18:04;;;;;;;2.70;1.10;;;14.80;57.00;;;;;;5011897;28;20061;-48
2021/01/13 01:20:29;;;;;;;1.55;0.85;;;14.90;57.10;;;;;;5012843;28;20057;-49
2021/01/13 01:23:00;;;;;;;1.42;0.98;;;14.80;57.20;;;;;;4996122;28;20092;-50
2021/01/13 01:25:26;;;;;;;;;;;14.80;57.20;;;;;;4993267;28;20560;-48
2021/01/13 01:27:53;;;;;;;3.17;0.80;;;14.80;57.10;;;;;;4992910;28;19961;-48
2021/01/13 01:30:20;;;;;;;1.85;0.80;;;14.80;57.10;;;;;;4993089;28;20432;-48
2021/01/13 01:32:46;;;;;;;2.55;1.10;;;14.80;57.10;;;;;;4991605;28;20030;-49
2021/01/13 01:35:13;;;;;;;2.85;1.20;;;14.70;57.10;;;;;;4991948;28;20433;-48
2021/01/13 01:37:39;;;;;;;4.10;1.10;;;14.70;57.10;;;;;;4992502;28;20038;-50
2021/01/13 01:40:07;;;;;;;2.03;0.90;;;14.70;57.10;;;;;;4992856;28;20041;-49
2021/01/13 01:42:32;;;;;;;2.83;1.00;;;14.70;57.20;;;;;;4992570;28;20092;-48
2021/01/13 01:44:58;;;;;;;2.70;0.98;;;14.70;57.20;;;;;;4992762;28;20109;-48
2021/01/13 01:47:59;;;;;;;2.55;0.90;;;14.80;57.20;;;;;;4992017;28;20030;-47
2021/01/13 01:50:29;;;;;;;1.73;0.70;;;14.70;57.20;;;;;;4953191;28;20532;-47
2021/01/13 01:53:21;;;;;;;1.52;0.68;;;14.70;57.30;;;;;;4992519;28;20022;-50
2021/01/13 01:56:02;;;;;;;2.38;0.93;;;14.60;57.30;;;;;;4975348;28;20043;-48
2021/01/13 01:58:30;;;;;;;0.93;0.60;;;14.60;57.30;;;;;;4992797;28;20031;-49
2021/01/13 02:01:01;;;;;;;1.40;0.80;;;14.60;57.30;;;;;;4992698;28;20471;-49
2021/01/13 02:03:32;;;;;;;2.80;0.98;;;14.60;57.40;;;;;;4992706;28;20027;-50
2021/01/13 02:06:08;;;;;;;1.92;0.77;;;14.60;57.40;;;;;;4992613;28;20481;-49
2021/01/13 02:08:38;;;;;;;1.02;0.68;;;14.60;57.40;;;;;;4992353;28;20045;-50
2021/01/13 02:11:04;;;;;;;2.38;0.88;;;14.60;57.40;;;;;;4992330;28;20385;-48
2021/01/13 02:13:29;;;;;;;1.95;0.80;;;14.60;57.40;;;;;;4992085;28;20028;-50
2021/01/13 02:15:55;;;;;;;1.13;0.70;;;14.50;57.40;;;;;;4991661;28;20038;-50
2021/01/13 02:18:24;;;;;;;1.85;0.75;;;14.50;57.40;;;;;;4992111;28;20023;-50
2021/01/13 02:20:58;;;;;;;2.58;1.08;;;14.50;57.40;;;;;;4992378;28;20190;-49
2021/01/13 02:23:34;;;;;;;2.03;1.00;;;14.50;57.40;;;;;;4996870;28;20139;-48
2021/01/13 02:26:33;;;;;;;2.58;0.70;;;14.50;57.50;;;;;;5011625;28;20037;-48
2021/01/13 02:29:27;;;;;;;2.65;0.80;;;14.50;57.40;;;;;;5011699;28;20026;-47
2021/01/13 02:32:13;;;;;;;3.17;0.70;;;14.50;57.50;;;;;;5002557;28;20061;-48
2021/01/13 02:35:09;;;;;;;1.63;0.57;;;14.50;57.50;;;;;;5011600;28;20022;-49
2021/01/13 02:37:41;;;;;;;2.72;0.73;;;14.50;57.50;;;;;;5011869;28;20104;-50
2021/01/13 02:40:10;;;;;;;1.90;0.88;;;14.40;57.50;;;;;;5011801;28;20540;-49
2021/01/13 02:42:47;;;;;;;1.35;0.70;;;14.40;57.50;;;;;;5011250;28;20038;-48
2021/01/13 02:45:24;;;;;;;2.53;0.80;;;14.40;57.50;;;;;;5011926;28;20034;-47
2021/01/13 02:47:58;;;;;;;1.13;0.60;;;14.40;57.50;;;;;;5014965;28;20530;-47
2021/01/13 02:50:25;;;;;;;1.98;0.80;;;14.40;57.50;;;;;;5015364;28;20084;-47
2021/01/13 02:53:09;;;;;;;1.60;1.02;;;14.40;57.50;;;;;;5014767;28;20018;-48
2021/01/13 02:55:46;;;;;;;1.60;0.52;;;14.40;57.60;;;;;;4997305;28;20443;-47
2021/01/13 02:58:15;;;;;;;2.28;0.88;;;14.30;57.60;;;;;;5015220;28;20436;-48
2021/01/13 03:00:41;;;;;;;1.52;0.60;;;14.40;57.60;;;;;;5014957;28;20029;-48
2021/01/13 03:03:07;;;;;;;1.73;0.60;;;14.30;57.60;;;;;;5014829;28;20028;-49
2021/01/13 03:05:33;;;;;;;3.25;0.80;;;14.30;57.50;;;;;;5014947;28;20470;-48
2021/01/13 03:07:59;;;;;;;2.30;0.80;;;14.30;57.60;;;;;;5014970;28;20102;-48
2021/01/13 03:10:26;;;;;;;1.55;0.75;;;14.30;57.60;;;;;;5014774;28;20408;-48
2021/01/13 03:13:00;;;;;;;2.22;0.70;;;14.30;57.60;;;;;;5014631;28;20456;-48
2021/01/13 03:15:30;;;;;;;2.38;0.68;;;14.30;57.60;;;;;;5013964;28;20032;-48
2021/01/13 03:18:43;;;;;;;2.13;0.70;;;14.30;57.60;;;;;;5014711;28;20037;-48
2021/01/13 03:21:18;;;;;;;1.45;0.70;;;14.30;57.70;;;;;;4960260;28;20378;-46
2021/01/13 03:23:52;;;;;;;2.22;0.70;;;14.20;57.60;;;;;;5015406;28;20117;-47
2021/01/13 03:26:24;;;;;;;2.00;0.80;;;14.20;57.60;;;;;;5014532;28;20026;-47
2021/01/13 03:28:52;;;;;;;1.35;0.80;;;14.20;57.60;;;;;;5014205;28;20057;-48
2021/01/13 03:31:27;;;;;;;1.65;0.60;;;14.20;57.70;;;;;;5014136;28;20022;-48
2021/01/13 03:34:28;;;;;;;2.13;0.70;;;14.20;57.60;;;;;;5014467;28;20109;-46
2021/01/13 03:37:15;;;;;;;4.65;0.80;;;14.20;57.70;;;;;;5013114;28;20045;-47
2021/01/13 03:39:41;;;;;;;3.42;1.20;;;14.20;57.60;;;;;;5014335;28;20018;-48
2021/01/13 03:42:11;;;;;;;1.33;0.47;;;14.20;57.70;;;;;;5014215;28;20370;-47
2021/01/13 03:44:39;;;;;;;1.83;0.60;;;14.20;57.70;;;;;;5014312;28;20024;-47
2021/01/13 03:47:32;;;;;;;3.55;0.90;;;14.20;57.70;;;;;;5014301;28;20029;-48
2021/01/13 03:50:23;;;;;;;1.70;0.85;;;14.10;57.60;;;;;;5014202;28;20106;-48
2021/01/13 03:52:58;;;;;;;2.80;0.80;;;14.10;57.60;;;;;;5014143;28;20014;-51
2021/01/13 03:55:25;;;;;;;1.20;0.40;;;14.10;57.70;;;;;;5013741;28;20026;-46
2021/01/13 03:57:57;;;;;;;1.13;0.50;;;14.10;57.60;;;;;;5013301;28;20357;-49
2021/01/13 04:00:33;;;;;;;1.48;0.50;;;14.10;57.60;;;;;;5013921;28;20452;-48
2021/01/13 04:03:24;;;;;;;2.15;0.43;;;14.10;57.70;;;;;;5013603;28;20104;-50
2021/01/13 04:06:11;;;;;;;1.20;0.50;;;14.10;57.70;;;;;;5013429;28;20034;-50
2021/01/13 04:08:47;;;;;;;1.58;0.50;;;14.10;57.70;;;;;;5013256;28;20488;-50
2021/01/13 04:11:15;;;;;;;1.17;0.50;;;14.10;57.70;;;;;;5013457;28;20022;-47
2021/01/13 04:13:49;;;;;;;1.48;0.38;;;14.00;57.70;;;;;;5013157;28;20125;-50
2021/01/13 04:16:18;;;;;;;1.60;0.70;;;14.00;57.70;;;;;;5012689;28;20120;-48
2021/01/13 04:18:45;;;;;;;1.00;0.70;;;14.00;57.70;;;;;;5013288;28;20555;-48
2021/01/13 04:21:14;;;;;;;0.70;0.45;;;14.00;57.70;;;;;;5013258;28;20058;-48
2021/01/13 04:23:40;;;;;;;1.70;0.60;;;14.00;57.70;;;;;;5014479;28;20053;-47
2021/01/13 04:26:06;;;;;;;1.33;0.60;;;14.00;57.70;;;;;;5013354;28;20123;-49
2021/01/13 04:28:32;;;;;;;1.83;0.73;;;14.00;57.80;;;;;;5013400;28;20028;-47
2021/01/13 04:30:59;;;;;;;1.13;0.63;;;14.00;57.80;;;;;;5013167;28;20026;-48
2021/01/13 04:33:25;;;;;;;1.27;0.40;;;14.00;57.80;;;;;;5013375;28;20038;-51
2021/01/13 04:35:51;;;;;;;1.70;0.50;;;13.90;57.70;;;;;;5013028;28;20030;-49
2021/01/13 04:38:32;;;;;;;1.85;0.73;;;14.00;57.80;;;;;;5012992;28;20026;-48
2021/01/13 04:41:17;;;;;;;2.47;0.70;;;13.90;57.80;;;;;;5012980;28;20476;-47
2021/01/13 04:44:02;;;;;;;2.95;0.68;;;13.90;57.70;;;;;;5012867;28;20480;-48
2021/01/13 04:46:36;;;;;;;1.42;0.60;;;13.90;57.80;;;;;;5012903;28;20407;-47
2021/01/13 04:49:01;;;;;;;1.65;0.60;;;13.90;57.80;;;;;;5012761;28;20029;-47
2021/01/13 04:51:31;;;;;;;1.13;0.50;;;13.90;57.80;;;;;;5013036;28;20022;-49
2021/01/13 04:53:57;;;;;;;1.00;0.63;;;13.90;57.80;;;;;;5012758;28;20032;-48
2021/01/13 04:56:25;;;;;;;1.17;0.43;;;13.90;57.80;;;;;;5012873;28;20042;-46
2021/01/13 04:59:05;;;;;;;3.30;0.85;;;13.90;57.90;;;;;;5012851;28;20091;-49
2021/01/13 05:01:49;;;;;;;1.58;0.45;;;13.90;57.90;;;;;;5012850;28;20064;-47
2021/01/13 05:04:14;;;;;;;1.13;0.60;;;13.80;57.80;;;;;;5012822;28;20058;-48
2021/01/13 05:06:49;;;;;;;2.15;0.65;;;13.90;57.90;;;;;;5012740;28;20109;-47
2021/01/13 05:09:16;;;;;;;3.22;0.95;;;13.90;58.00;;;;;;5011832;28;20030;-47
2021/01/13 05:11:41;;;;;;;2.08;0.50;;;13.80;58.00;;;;;;5012673;28;20014;-47
2021/01/13 05:14:09;;;;;;;2.30;0.60;;;13.80;58.10;;;;;;5012321;28;20085;-47
2021/01/13 05:16:40;;;;;;;1.83;0.40;;;13.80;58.10;;;;;;5012482;28;20037;-49
2021/01/13 05:19:14;;;;;;;0.98;0.30;;;13.80;58.10;;;;;;5012292;28;20038;-50
2021/01/13 05:21:43;;;;;;;1.45;0.65;;;14.00;58.20;;;;;;5012341;28;20049;-48
2021/01/13 05:24:18;;;;;;;1.27;0.50;;;13.80;58.10;;;;;;5013416;28;20084;-48
2021/01/13 05:27:00;;;;;;;1.73;0.60;;;13.80;58.10;;;;;;5012202;28;20026;-47
2021/01/13 05:29:38;;;;;;;2.05;0.55;;;13.70;58.00;;;;;;5012182;28;20072;-50
2021/01/13 05:32:06;;;;;;;2.33;0.52;;;13.80;58.10;;;;;;5012405;28;20049;-48
2021/01/13 05:34:35;;;;;;;1.38;0.65;;;13.80;58.10;;;;;;5012280;28;20182;-48
2021/01/13 05:37:17;;;;;;;1.13;0.45;;;13.70;58.00;;;;;;5011990;28;20500;-48
2021/01/13 05:39:49;;;;;;;1.38;0.57;;;13.70;58.10;;;;;;5011991;28;20472;-48
2021/01/13 05:42:17;;;;;;;2.45;0.85;;;13.70;58.10;;;;;;5012200;28;20034;-46
2021/01/13 05:44:43;;;;;;;1.83;0.60;;;13.80;58.10;;;;;;5012224;28;20376;-46
2021/01/13 05:47:29;;;;;;;2.05;0.70;;;13.70;58.10;;;;;;5011831;28;20112;-48
2021/01/13 05:49:58;;;;;;;1.50;0.60;;;13.70;58.20;;;;;;5012003;28;20058;-48
2021/01/13 05:52:31;;;;;;;2.93;0.93;;;13.80;58.20;;;;;;5012183;28;20036;-47
2021/01/13 05:54:57;;;;;;;1.60;0.50;;;13.70;58.20;;;;;;5012091;28;20031;-48
2021/01/13 05:57:24;;;;;;;2.15;0.75;;;13.80;58.30;;;;;;5011641;28;20038;-48
2021/01/13 05:59:52;;;;;;;1.25;0.50;;;13.70;58.40;;;;;;5012093;28;20058;-48
2021/01/13 06:02:19;;;;;;;2.15;0.50;;;13.70;58.40;;;;;;5011819;28;20025;-48
2021/01/13 06:04:47;;;;;;;2.13;0.82;;;13.70;58.40;;;;;;5011783;28;20060;-48
2021/01/13 06:07:21;;;;;;;1.40;0.60;;;13.80;58.80;;;;;;5011712;28;20018;-48
2021/01/13 06:09:54;;;;;;;2.08;0.70;;;13.80;58.80;;;;;;5012083;28;20025;-48
2021/01/13 06:12:22;;;;;;;0.88;0.43;;;13.90;70.90;;;;;;5011956;28;20105;-47
2021/01/13 06:14:51;;;;;;;1.48;0.50;;;14.00;58.60;;;;;;5011863;28;20382;-47
2021/01/13 06:17:22;;;;;;;1.90;0.70;;;14.10;58.70;;;;;;5011869;28;20030;-47
2021/01/13 06:19:51;;;;;;;;;;;14.30;58.40;;;;;;5012314;28;20440;-48
2021/01/13 06:22:17;;;;;;;1.70;0.70;;;14.30;58.20;;;;;;5015319;28;19960;-49
2021/01/13 06:24:45;;;;;;;2.83;0.90;;;14.40;58.50;;;;;;5016662;28;20436;-47
2021/01/13 06:27:23;;;;;;;1.70;0.85;;;14.50;58.80;;;;;;5015665;28;20026;-48
2021/01/13 06:29:53;;;;;;;7.55;1.05;;;14.60;58.80;;;;;;5015735;28;20018;-48
2021/01/13 06:32:30;;;;;;;6.35;0.63;;;14.60;59.10;;;;;;5015723;28;20117;-48
2021/01/13 06:35:01;;;;;;;4.45;0.77;;;14.70;59.50;;;;;;5015585;28;20042;-49
2021/01/13 06:37:37;;;;;;;3.15;0.65;;;14.80;59.20;;;;;;5015291;28;20489;-47
2021/01/13 06:40:29;;;;;;;2.80;0.70;;;14.80;58.70;;;;;;5014465;28;20064;-48
2021/01/13 06:42:55;;;;;;;2.85;0.68;;;14.90;58.40;;;;;;5014858;28;20030;-47
2021/01/13 06:45:31;;;;;;;4.55;0.63;;;14.90;58.00;;;;;;5013241;28;20032;-49
2021/01/13 06:47:57;;;;;;;5.38;0.88;;;14.90;57.60;;;;;;5014843;28;20026;-48
2021/01/13 06:50:42;;;;;;;4.78;1.10;;;15.00;57.30;;;;;;5014963;28;20473;-48
2021/01/13 06:53:12;;;;;;;3.45;0.80;;;15.00;56.90;;;;;;5015375;28;20033;-48
2021/01/13 06:55:40;;;;;;;2.72;0.73;;;15.10;56.70;;;;;;5014787;28;20033;-48
2021/01/13 06:58:11;;;;;;;2.80;0.75;;;15.10;56.40;;;;;;5015217;28;20096;-47
2021/01/13 07:00:37;;;;;;;2.33;0.80;;;15.20;56.20;;;;;;5015123;28;20150;-47
2021/01/13 07:03:26;;;;;;;2.78;0.90;;;15.20;56.00;;;;;;5014865;28;20451;-47
2021/01/13 07:05:57;;;;;;;1.67;0.70;;;15.30;55.70;;;;;;5015095;28;20021;-48
2021/01/13 07:08:23;;;;;;;2.05;0.65;;;15.30;55.50;;;;;;4997046;28;20042;-50
2021/01/13 07:10:59;;;;;;;4.43;0.73;;;15.30;55.20;;;;;;5014755;28;20441;-48
2021/01/13 07:13:28;;;;;;;2.20;0.70;;;15.40;55.10;;;;;;5014755;28;20026;-48
2021/01/13 07:15:58;;;;;;;2.42;0.73;;;15.40;54.90;;;;;;5014548;28;20136;-47
2021/01/13 07:18:24;;;;;;;3.47;1.13;;;15.40;55.20;;;;;;5014396;28;20026;-48
2021/01/13 07:20:50;;;;;;;4.18;0.95;;;15.50;55.10;;;;;;5014614;28;20025;-48
2021/01/13 07:23:17;;;;;;;6.72;1.25;;;15.50;55.40;;;;;;5014676;28;20030;-47
2021/01/13 07:25:49;;;;;;;2.72;0.80;;;15.50;55.40;;;;;;5015426;28;20408;-48
2021/01/13 07:28:16;;;;;;;4.40;0.95;;;15.50;55.60;;;;;;5014574;28;20113;-51
2021/01/13 07:30:43;;;;;;;2.15;0.75;;;15.60;55.70;;;;;;5014211;28;20028;-50
2021/01/13 07:33:12;;;;;;;5.13;0.63;;;15.60;55.80;;;;;;5012999;28;20028;-47
2021/01/13 07:35:48;;;;;;;2.90;0.93;;;15.60;55.90;;;;;;5014176;28;20032;-51
2021/01/13 07:38:19;;;;;;;2.40;0.50;;;15.60;56.10;;;;;;5014392;28;20428;-47
2021/01/13 07:41:07;;;;;;;2.63;0.88;;;15.60;56.10;;;;;;5013886;28;20472;-48
2021/01/13 07:43:51;;;;;;;3.25;0.77;;;15.70;56.20;;;;;;4996611;28;20080;-48
2021/01/13 07:46:32;;;;;;;3.65;0.80;;;15.70;56.20;;;;;;5013889;28;20022;-47
2021/01/13 07:49:17;;;;;;;2.13;0.60;;;15.70;56.20;;;;;;5014003;28;20029;-49
2021/01/13 07:51:54;;;;;;;3.45;0.80;;;15.60;56.40;;;;;;5014038;28;20067;-49
2021/01/13 07:54:33;;;;;;;4.43;0.80;;;15.70;56.30;;;;;;5006763;28;20037;-49
2021/01/13 07:57:00;;;;;;;2.78;0.55;;;15.70;56.30;;;;;;5013748;28;20084;-51
2021/01/13 07:59:44;;;;;;;1.73;0.63;;;15.70;56.20;;;;;;5013683;28;20033;-50
2021/01/13 08:02:34;;;;;;;1.35;0.50;;;15.90;56.20;;;;;;5013970;28;20695;-49
2021/01/13 08:05:21;;;;;;;1.80;0.60;;;15.90;55.70;;;;;;5013355;28;20034;-48
2021/01/13 08:08:11;;;;;;;3.55;0.77;;;16.00;55.30;;;;;;5013514;28;20038;-48
2021/01/13 08:10:41;;;;;;;2.35;0.73;;;16.20;54.80;;;;;;5008524;28;20025;-48
2021/01/13 08:13:22;;;;;;;2.85;1.02;;;16.30;54.70;;;;;;5013680;28;20033;-50
2021/01/13 08:16:06;;;;;;;6.18;0.88;;;16.40;54.50;;;;;;5013164;28;20030;-49
2021/01/13 08:18:50;;;;;;;1.42;0.60;;;16.50;54.30;;;;;;5013643;28;20037;-47
2021/01/13 08:21:34;;;;;;;1.95;0.75;;;16.60;54.20;;;;;;5013637;28;20395;-48
2021/01/13 08:24:39;;;;;;;1.15;0.60;;;16.60;54.20;;;;;;5014528;28;20060;-48
2021/01/13 08:26:58;;;;;;;3.35;0.63;;;16.70;54.30;;;;;;5009316;28;20112;-46
2021/01/13 08:29:39;;;;;;;3.95;0.85;;;16.80;54.30;;;;;;4995175;28;20486;-47
2021/01/13 08:32:07;;;;;;;1.77;0.70;;;16.70;54.20;;;;;;5013302;28;20057;-46
2021/01/13 08:34:40;;;;;;;2.15;0.60;;;16.70;54.30;;;;;;5013414;28;20029;-46
2021/01/13 08:37:07;;;;;;;5.53;0.77;;;16.70;54.30;;;;;;5013242;28;20053;-45
2021/01/13 08:39:41;;;;;;;4.03;0.82;;;16.70;54.30;;;;;;5013613;28;20030;-46
2021/01/13 08:42:18;;;;;;;6.50;1.08;;;16.70;54.30;;;;;;5013256;28;20069;-48
2021/01/13 08:44:44;;;;;;;3.35;0.70;;;16.70;54.20;;;;;;5012246;28;20026;-47
2021/01/13 08:47:17;;;;;;;5.78;1.05;;;16.70;54.30;;;;;;5013165;28;20560;-46
2021/01/13 08:49:43;;;;;;;3.50;0.88;;;16.70;54.30;;;;;;5013055;28;20018;-46
2021/01/13 08:52:22;;;;;;;3.17;0.80;;;16.80;54.40;;;;;;5013088;28;20587;-47
2021/01/13 08:54:48;;;;;;;1.70;1.00;;;16.80;54.30;;;;;;5029026;28;20021;-48
2021/01/13 08:57:14;;;;;;;1.50;0.63;;;16.80;54.20;;;;;;5032705;28;20038;-46
2021/01/13 08:59:45;;;;;;;3.45;1.02;;;16.80;54.20;;;;;;5032641;28;20022;-50
2021/01/13 09:02:15;;;;;;;1.77;0.93;;;16.70;54.20;;;;;;5032554;28;20083;-46
2021/01/13 09:04:57;;;;;;;3.92;0.50;;;16.70;54.30;;;;;;5032469;28;20029;-47
2021/01/13 09:07:24;;;;;;;2.20;0.63;;;16.70;54.40;;;;;;5032672;28;20376;-46
2021/01/13 09:10:11;;;;;;;2.45;0.85;;;16.70;54.30;;;;;;5032350;28;20449;-46
2021/01/13 09:12:44;;;;;;;6.15;0.85;;;16.70;55.00;;;;;;5032353;28;20129;-46
2021/01/13 09:15:13;;;;;;;1.13;0.60;;;16.70;54.30;;;;;;5032439;28;20022;-45
2021/01/13 09:17:59;;;;;;;2.88;0.95;;;16.70;54.20;;;;;;5032176;28;20030;-46
2021/01/13 09:20:32;;;;;;;1.98;0.73;;;16.70;54.20;;;;;;5031917;28;20497;-45
2021/01/13 09:22:59;;;;;;;3.05;0.90;;;16.70;54.20;;;;;;5032228;28;20037;-46
2021/01/13 09:25:27;;;;;;;2.80;0.73;;;16.60;54.10;;;;;;5033178;28;20116;-47
2021/01/13 09:27:56;;;;;;;1.75;0.50;;;16.70;54.10;;;;;;5032219;28;20423;-47
2021/01/13 09:30:41;;;;;;;1.75;0.77;;;16.80;54.10;;;;;;5032137;28;20083;-47
2021/01/13 09:33:08;;;;;;;2.25;0.90;;;16.70;54.10;;;;;;5032213;28;20062;-51
2021/01/13 09:35:39;;;;;;;1.48;0.75;;;16.70;54.10;;;;;;5032120;28;20376;-47
2021/01/13 09:38:13;;;;;;;4.15;0.70;;;16.80;54.00;;;;;;5032107;28;20109;-47
2021/01/13 09:41:02;;;;;;;4.00;1.00;;;16.90;54.00;;;;;;5031782;28;20035;-47
2021/01/13 09:43:44;;;;;;;1.60;0.50;;;16.80;54.00;;;;;;5032155;28;20021;-47
2021/01/13 09:46:22;;;;;;;1.92;0.70;;;16.90;54.00;;;;;;5032164;28;20022;-46
2021/01/13 09:49:09;;;;;;;3.40;0.60;;;16.90;54.00;;;;;;5032088;28;20025;-47
2021/01/13 09:51:39;;;;;;;1.83;0.70;;;16.90;54.00;;;;;;5031508;28;20029;-47
2021/01/13 09:54:06;;;;;;;0.90;0.50;;;16.90;54.00;;;;;;5031712;28;20029;-48
2021/01/13 09:56:34;;;;;;;1.60;0.80;;;16.90;54.00;;;;;;5034828;28;20040;-47
2021/01/13 09:59:07;;;;;;;3.78;0.90;;;17.00;54.00;;;;;;5035780;28;20400;-49
2021/01/13 10:01:36;;;;;;;2.33;0.73;;;17.00;53.90;;;;;;5035981;28;20360;-47
2021/01/13 10:04:09;;;;;;;1.98;0.80;;;17.00;54.00;;;;;;5023197;28;20032;-48
2021/01/13 10:06:42;;;;;;;2.75;0.70;;;17.00;54.00;;;;;;5015885;28;20026;-49
2021/01/13 10:09:13;;;;;;;3.20;0.90;;;17.10;54.10;;;;;;5015666;28;20029;-47
2021/01/13 10:11:39;;;;;;;3.65;0.63;;;17.10;54.00;;;;;;5014556;28;20049;-47
2021/01/13 10:14:07;;;;;;;2.83;0.60;;;17.10;54.00;;;;;;5015575;28;20029;-47
2021/01/13 10:16:40;;;;;;;2.38;0.63;;;17.10;54.00;;;;;;5015916;28;20388;-47
2021/01/13 10:19:06;;;;;;;4.57;0.70;;;17.10;54.00;;;;;;5015610;28;20034;-48
2021/01/13 10:21:43;;;;;;;5.32;0.98;;;17.10;53.90;;;;;;5015849;28;20041;-49
2021/01/13 10:24:11;;;;;;;2.30;0.88;;;17.10;53.90;;;;;;5016512;28;20022;-47
2021/01/13 10:26:41;;;;;;;3.03;0.63;;;17.20;53.90;;;;;;5015433;28;20116;-47
2021/01/13 10:29:09;;;;;;;2.65;0.70;;;17.20;53.80;;;;;;5015768;28;20100;-47
2021/01/13 10:31:35;;;;;;;1.33;0.43;;;17.20;53.80;;;;;;5015111;28;20076;-50
2021/01/13 10:34:02;;;;;;;2.63;0.52;;;17.20;53.80;;;;;;5015665;28;20416;-48
2021/01/13 10:36:39;;;;;;;2.28;0.75;;;17.20;53.80;;;;;;5015300;28;20030;-48
2021/01/13 10:39:12;;;;;;;1.25;0.68;;;17.20;53.70;;;;;;5015427;28;20080;-48
2021/01/13 10:41:39;;;;;;;1.50;0.68;;;17.20;53.60;;;;;;5015298;28;20026;-48
2021/01/13 10:44:09;;;;;;;2.10;0.68;;;17.20;53.60;;;;;;5015489;28;20026;-49
2021/01/13 10:46:42;;;;;;;4.70;0.90;;;17.20;53.60;;;;;;4997639;28;20379;-48
2021/01/13 10:49:14;;;;;;;1.98;0.70;;;17.10;53.60;;;;;;5015360;28;20497;-47
2021/01/13 10:51:47;;;;;;;5.22;0.80;;;17.10;53.70;;;;;;5015232;28;20022;-49
2021/01/13 10:54:17;;;;;;;4.55;0.70;;;17.00;53.70;;;;;;5015528;28;20369;-48
2021/01/13 10:56:43;;;;;;;;;;;17.00;53.80;;;;;;5015603;28;20030;-49
2021/01/13 10:59:15;;;;;;;2.60;1.25;;;16.90;54.00;;;;;;5015196;28;19949;-48
2021/01/13 11:01:44;;;;;;;4.68;0.70;;;16.80;54.00;;;;;;4997417;28;20021;-48
2021/01/13 11:04:43;;;;;;;2.83;0.88;;;16.80;53.90;;;;;;5015271;28;20072;-48
2021/01/13 11:07:19;;;;;;;2.70;0.80;;;16.70;54.00;;;;;;4971216;28;20030;-49
2021/01/13 11:09:47;;;;;;;2.40;0.63;;;16.60;54.20;;;;;;5015107;28;20049;-48
2021/01/13 11:12:21;;;;;;;1.83;0.60;;;16.60;54.10;;;;;;5014669;28;20026;-49
2021/01/13 11:14:49;;;;;;;3.88;1.05;;;16.60;54.10;;;;;;5014895;28;20085;-51
2021/01/13 11:17:20;;;;;;;2.75;1.17;;;16.60;54.00;;;;;;5014985;28;20066;-49
2021/01/13 11:19:57;;;;;;;3.35;1.15;;;16.60;53.80;;;;;;5014574;28;20033;-53
2021/01/13 11:22:46;;;;;;;2.33;0.80;;;16.70;53.80;;;;;;5014532;28;20029;-50
2021/01/13 11:25:38;;;;;;;3.45;0.90;;;16.70;53.70;;;;;;5015460;28;20077;-48
2021/01/13 11:28:05;;;;;;;2.80;1.00;;;16.80;53.70;;;;;;5014575;28;20105;-50
2021/01/13 11:30:33;;;;;;;1.73;0.40;;;16.80;53.60;;;;;;5014108;28;20026;-50
2021/01/13 11:33:01;;;;;;;3.47;0.70;;;16.70;53.40;;;;;;5014454;28;20057;-49
2021/01/13 11:35:35;;;;;;;3.05;0.90;;;16.80;53.40;;;;;;5014317;28;20030;-49
2021/01/13 11:38:38;;;;;;;1.80;0.60;;;16.80;53.40;;;;;;5014416;28;20056;-48
2021/01/13 11:41:22;;;;;;;1.90;0.70;;;16.80;53.30;;;;;;5014267;28;20396;-49
2021/01/13 11:44:15;;;;;;;1.65;0.95;;;16.80;53.20;;;;;;5014250;28;20113;-50
2021/01/13 11:46:46;;;;;;;4.78;0.65;;;16.80;53.10;;;;;;5014051;28;20482;-51
2021/01/13 11:49:14;;;;;;;;;;;16.80;53.00;;;;;;5014636;28;20032;-49
2021/01/13 11:51:45;;;;;;;1.60;0.57;;;16.90;53.00;;;;;;5013766;28;19956;-51
2021/01/13 11:54:28;;;;;;;1.73;0.65;;;16.90;52.90;;;;;;5014261;28;20034;-48
2021/01/13 11:56:55;;;;;;;3.13;1.00;;;16.90;52.90;;;;;;5013752;28;20491;-49
2021/01/13 11:59:25;;;;;;;1.63;0.80;;;17.00;52.80;;;;;;5014059;28;20026;-51
2021/01/13 12:01:51;;;;;;;;;;;17.00;52.80;;;;;;5014231;28;20377;-53
2021/01/13 12:04:17;;;;;;;4.00;0.93;;;17.10;53.10;;;;;;5013809;28;19910;-50
2021/01/13 12:07:02;;;;;;;3.15;0.80;;;17.00;53.10;;;;;;5013932;28;20018;-55
2021/01/13 12:09:28;;;;;;;2.50;0.70;;;17.10;53.20;;;;;;5013606;28;20036;-54
2021/01/13 12:11:54;;;;;;;4.53;0.85;;;17.10;53.30;;;;;;4995833;28;20026;-53
2021/01/13 12:14:19;;;;;;;3.58;0.88;;;17.20;53.70;;;;;;5013494;28;20416;-53
2021/01/13 12:16:45;;;;;;;2.25;0.80;;;17.20;53.80;;;;;;5013227;28;20038;-54
2021/01/13 12:19:11;;;;;;;2.10;0.93;;;17.30;54.00;;;;;;5013138;28;20021;-53
2021/01/13 12:21:43;;;;;;;3.78;1.10;;;17.30;54.30;;;;;;4995812;28;20455;-54
2021/01/13 12:24:16;;;;;;;2.80;0.90;;;17.40;54.80;;;;;;5013876;28;20036;-55
2021/01/13 12:26:42;;;;;;;4.20;0.80;;;17.50;54.80;;;;;;5013603;28;20034;-51
2021/01/13 12:29:08;;;;;;;2.67;1.00;;;17.50;55.00;;;;;;5013486;28;20042;-52
2021/01/13 12:31:44;;;;;;;2.67;1.05;;;17.40;55.30;;;;;;5013540;28;20029;-51
2021/01/13 12:34:16;;;;;;;4.95;1.08;;;17.60;54.90;;;;;;5013132;28;20072;-51
2021/01/13 12:36:47;;;;;;;4.65;1.00;;;17.60;54.80;;;;;;5012898;28;20612;-52
2021/01/13 12:39:54;;;;;;;1.80;0.70;;;17.60;54.80;;;;;;5012901;28;20026;-51
2021/01/13 12:42:20;;;;;;;5.18;0.85;;;17.50;54.80;;;;;;4992946;28;20026;-53
2021/01/13 12:44:51;;;;;;;5.20;1.10;;;17.50;54.90;;;;;;5012881;28;20681;-53
2021/01/13 12:47:25;;;;;;;4.78;1.10;;;17.40;54.90;;;;;;5013012;28;20025;-50
2021/01/13 12:49:50;;;;;;;3.90;0.73;;;17.40;55.60;;;;;;5012963;28;20018;-52
2021/01/13 12:52:17;;;;;;;3.72;1.13;;;17.40;56.00;;;;;;5012599;28;20037;-51
2021/01/13 12:54:43;;;;;;;4.43;0.82;;;17.40;56.20;;;;;;5012846;28;20113;-51
2021/01/13 12:57:08;;;;;;;3.05;0.90;;;17.40;58.40;;;;;;5031791;28;20124;-49
2021/01/13 12:59:34;;;;;;;3.42;0.90;;;17.30;59.60;;;;;;5032757;28;20028;-50
2021/01/13 13:02:00;;;;;;;4.45;0.70;;;17.40;59.50;;;;;;5032149;28;20427;-49
2021/01/13 13:04:25;;;;;;;3.75;0.98;;;17.40;62.60;;;;;;5032397;28;20022;-49
2021/01/13 13:06:51;;;;;;;2.30;0.98;;;17.40;63.50;;;;;;5032628;28;20055;-50
2021/01/13 13:09:17;;;;;;;7.55;1.42;;;17.40;62.10;;;;;;5032547;28;20033;-50
2021/01/13 13:11:42;;;;;;;4.30;0.80;;;17.30;64.00;;;;;;5031828;28;20060;-51
2021/01/13 13:14:11;;;;;;;1.05;0.50;;;17.40;63.90;;;;;;5016868;28;20062;-52
2021/01/13 13:16:37;;;;;;;2.30;0.77;;;17.30;64.70;;;;;;5024363;28;20077;-51